sensor_id;sensor_type;location;lat;lon;timestamp;pressure;altitude;pressure_sealevel;temperature;humidity
26487;BME280;14425;56.136;40.360;2023-02-12T00:00:07;98238.22;;;-3.08;100.00
26487;BME280;14425;56.136;40.360;2023-02-12T00:02:34;98226.25;;;-2.85;100.00
26487;BME280;14425;56.136;40.360;2023-02-12T00:05:00;98214.38;;;-3.00;100.00
26487;BME280;14425;56.136;40.360;2023-02-12T00:07:28;98211.31;;;-2.82;100.00
26487;BME280;14425;56.136;40.360;2023-02-12T00:09:54;98217.53;;;-2.90;100.00
26487;BME280;14425;56.136;40.360;2023-02-12T00:12:19;98214.81;;;-2.53;100.00
26487;BME280;14425;56.136;40.360;2023-02-12T00:14:45;98222.53;;;-3.04;100.00
26487;BME280;14425;56.136;40.360;2023-02-12T00:17:10;98218.78;;;-3.22;100.00
26487;BME280;14425;56.136;40.360;2023-02-12T00:19:36;98213.75;;;-3.09;100.00
26487;BME280;14425;56.136;40.360;2023-02-12T00:22:01;98216.59;;;-3.04;100.00
26487;BME280;14425;56.136;40.360;2023-02-12T00:24:27;98206.50;;;-3.04;100.00
26487;BME280;14425;56.136;40.360;2023-02-12T00:26:52;98217.19;;;-3.08;100.00
26487;BME280;14425;56.136;40.360;2023-02-12T00:29:18;98198.88;;;-2.92;100.00
26487;BME280;14425;56.136;40.360;2023-02-12T00:31:43;98201.88;;;-2.98;100.00
26487;BME280;14425;56.136;40.360;2023-02-12T00:34:09;98198.13;;;-2.78;100.00
26487;BME280;14425;56.136;40.360;2023-02-12T00:36:35;98207.06;;;-2.56;100.00
26487;BME280;14425;56.136;40.360;2023-02-12T00:39:00;98192.66;;;-2.84;100.00
26487;BME280;14425;56.136;40.360;2023-02-12T00:41:26;98196.84;;;-2.85;100.00
26487;BME280;14425;56.136;40.360;2023-02-12T00:43:52;98200.84;;;-2.62;100.00
26487;BME280;14425;56.136;40.360;2023-02-12T00:46:18;98197.25;;;-2.79;100.00
26487;BME280;14425;56.136;40.360;2023-02-12T00:48:43;98203.66;;;-2.70;100.00
26487;BME280;14425;56.136;40.360;2023-02-12T00:51:09;98200.25;;;-2.57;100.00
26487;BME280;14425;56.136;40.360;2023-02-12T00:53:35;98190.13;;;-2.84;100.00
26487;BME280;14425;56.136;40.360;2023-02-12T00:56:00;98197.91;;;-2.68;100.00
26487;BME280;14425;56.136;40.360;2023-02-12T00:58:26;98188.13;;;-2.63;100.00
26487;BME280;14425;56.136;40.360;2023-02-12T01:00:52;98212.50;;;-2.64;100.00
26487;BME280;14425;56.136;40.360;2023-02-12T01:03:19;98201.03;;;-2.72;100.00
26487;BME280;14425;56.136;40.360;2023-02-12T01:05:44;98200.63;;;-2.65;100.00
26487;BME280;14425;56.136;40.360;2023-02-12T01:08:12;98194.81;;;-2.77;100.00
26487;BME280;14425;56.136;40.360;2023-02-12T01:10:38;98198.72;;;-2.69;100.00
26487;BME280;14425;56.136;40.360;2023-02-12T01:13:03;98192.09;;;-2.67;100.00
26487;BME280;14425;56.136;40.360;2023-02-12T01:15:29;98199.38;;;-2.58;100.00
26487;BME280;14425;56.136;40.360;2023-02-12T01:17:54;98204.31;;;-2.19;100.00
26487;BME280;14425;56.136;40.360;2023-02-12T01:20:21;98189.88;;;-1.94;100.00
26487;BME280;14425;56.136;40.360;2023-02-12T01:22:47;98204.31;;;-2.33;100.00
26487;BME280;14425;56.136;40.360;2023-02-12T01:25:13;98205.78;;;-2.23;100.00
26487;BME280;14425;56.136;40.360;2023-02-12T01:27:39;98205.97;;;-2.47;100.00
26487;BME280;14425;56.136;40.360;2023-02-12T01:30:06;98215.19;;;-2.20;100.00
26487;BME280;14425;56.136;40.360;2023-02-12T01:32:33;98215.53;;;-2.01;100.00
26487;BME280;14425;56.136;40.360;2023-02-12T01:34:58;98200.59;;;-1.70;100.00
26487;BME280;14425;56.136;40.360;2023-02-12T01:37:24;98203.69;;;-2.02;100.00
26487;BME280;14425;56.136;40.360;2023-02-12T01:39:49;98211.63;;;-1.54;100.00
26487;BME280;14425;56.136;40.360;2023-02-12T01:42:15;98204.81;;;-1.12;100.00
26487;BME280;14425;56.136;40.360;2023-02-12T01:44:45;98209.72;;;-2.00;100.00
26487;BME280;14425;56.136;40.360;2023-02-12T01:47:16;98210.03;;;-2.09;100.00
26487;BME280;14425;56.136;40.360;2023-02-12T01:49:44;98209.69;;;-1.87;100.00
26487;BME280;14425;56.136;40.360;2023-02-12T01:52:27;98200.53;;;-1.84;100.00
26487;BME280;14425;56.136;40.360;2023-02-12T01:54:55;98208.19;;;-2.11;100.00
26487;BME280;14425;56.136;40.360;2023-02-12T01:57:25;98209.16;;;-2.36;100.00
26487;BME280;14425;56.136;40.360;2023-02-12T01:59:53;98199.28;;;-1.63;100.00
26487;BME280;14425;56.136;40.360;2023-02-12T02:02:20;98194.16;;;-1.64;100.00
26487;BME280;14425;56.136;40.360;2023-02-12T02:04:49;98210.03;;;-1.67;100.00
26487;BME280;14425;56.136;40.360;2023-02-12T02:07:16;98210.28;;;-1.91;100.00
26487;BME280;14425;56.136;40.360;2023-02-12T02:09:42;98209.00;;;-1.84;100.00
26487;BME280;14425;56.136;40.360;2023-02-12T02:12:08;98208.91;;;-1.86;100.00
26487;BME280;14425;56.136;40.360;2023-02-12T02:14:56;98211.78;;;-1.66;100.00
26487;BME280;14425;56.136;40.360;2023-02-12T02:17:50;98220.97;;;-1.95;100.00
26487;BME280;14425;56.136;40.360;2023-02-12T02:39:08;98240.41;;;-1.94;100.00
26487;BME280;14425;56.136;40.360;2023-02-12T02:41:59;98237.09;;;-1.93;100.00
26487;BME280;14425;56.136;40.360;2023-02-12T02:44:36;98251.69;;;-2.02;100.00
26487;BME280;14425;56.136;40.360;2023-02-12T02:47:06;98240.63;;;-2.57;100.00
26487;BME280;14425;56.136;40.360;2023-02-12T02:49:43;98246.88;;;-2.52;100.00
26487;BME280;14425;56.136;40.360;2023-02-12T02:52:13;98252.19;;;-2.34;100.00
26487;BME280;14425;56.136;40.360;2023-02-12T02:54:44;98248.38;;;-2.01;100.00
26487;BME280;14425;56.136;40.360;2023-02-12T02:57:18;98255.88;;;-2.16;100.00
26487;BME280;14425;56.136;40.360;2023-02-12T02:59:51;98252.16;;;-1.81;100.00
26487;BME280;14425;56.136;40.360;2023-02-12T03:02:24;98261.88;;;-1.87;100.00
26487;BME280;14425;56.136;40.360;2023-02-12T03:05:33;98262.09;;;-1.56;100.00
26487;BME280;14425;56.136;40.360;2023-02-12T03:08:02;98257.44;;;-2.05;100.00
26487;BME280;14425;56.136;40.360;2023-02-12T03:10:41;98260.34;;;-1.28;100.00
26487;BME280;14425;56.136;40.360;2023-02-12T03:16:32;98270.72;;;-0.81;100.00
26487;BME280;14425;56.136;40.360;2023-02-12T03:19:04;98272.59;;;-1.06;100.00
26487;BME280;14425;56.136;40.360;2023-02-12T03:21:40;98276.66;;;-0.65;100.00
26487;BME280;14425;56.136;40.360;2023-02-12T03:24:44;98276.25;;;0.03;96.09
26487;BME280;14425;56.136;40.360;2023-02-12T03:29:41;98275.84;;;-0.05;94.20
26487;BME280;14425;56.136;40.360;2023-02-12T03:37:43;98292.44;;;0.05;94.34
26487;BME280;14425;56.136;40.360;2023-02-12T03:40:36;98286.13;;;0.30;90.05
26487;BME280;14425;56.136;40.360;2023-02-12T03:45:52;98288.28;;;0.86;84.84
26487;BME280;14425;56.136;40.360;2023-02-12T03:53:35;98302.00;;;0.90;82.40
26487;BME280;14425;56.136;40.360;2023-02-12T03:56:08;98296.66;;;1.02;81.72
26487;BME280;14425;56.136;40.360;2023-02-12T03:58:36;98306.31;;;1.25;80.72
26487;BME280;14425;56.136;40.360;2023-02-12T04:01:03;98311.81;;;1.00;81.35
26487;BME280;14425;56.136;40.360;2023-02-12T04:03:29;98306.00;;;1.19;80.09
26487;BME280;14425;56.136;40.360;2023-02-12T04:05:55;98311.06;;;1.19;79.36
26487;BME280;14425;56.136;40.360;2023-02-12T04:08:21;98317.31;;;1.08;80.65
26487;BME280;14425;56.136;40.360;2023-02-12T04:16:28;98324.97;;;1.26;80.37
26487;BME280;14425;56.136;40.360;2023-02-12T04:18:57;98332.44;;;1.06;81.21
26487;BME280;14425;56.136;40.360;2023-02-12T04:21:44;98330.63;;;1.04;81.96
26487;BME280;14425;56.136;40.360;2023-02-12T04:29:41;98350.44;;;1.27;79.96
26487;BME280;14425;56.136;40.360;2023-02-12T04:34:51;98361.94;;;1.04;82.15
26487;BME280;14425;56.136;40.360;2023-02-12T04:39:48;98358.88;;;1.26;78.97
26487;BME280;14425;56.136;40.360;2023-02-12T04:42:14;98369.97;;;1.28;79.36
26487;BME280;14425;56.136;40.360;2023-02-12T04:44:42;98365.22;;;1.18;79.54
26487;BME280;14425;56.136;40.360;2023-02-12T04:47:12;98372.09;;;1.04;80.95
26487;BME280;14425;56.136;40.360;2023-02-12T04:49:38;98373.44;;;0.98;81.22
26487;BME280;14425;56.136;40.360;2023-02-12T04:52:04;98379.50;;;1.00;81.94
26487;BME280;14425;56.136;40.360;2023-02-12T04:54:29;98384.72;;;0.86;82.27
26487;BME280;14425;56.136;40.360;2023-02-12T04:56:56;98384.97;;;1.07;80.99
26487;BME280;14425;56.136;40.360;2023-02-12T04:59:21;98377.44;;;1.09;81.25
26487;BME280;14425;56.136;40.360;2023-02-12T05:01:47;98390.59;;;0.85;81.72
26487;BME280;14425;56.136;40.360;2023-02-12T05:04:14;98397.56;;;0.12;87.68
26487;BME280;14425;56.136;40.360;2023-02-12T05:06:40;98402.81;;;-0.30;92.44
26487;BME280;14425;56.136;40.360;2023-02-12T05:09:06;98410.47;;;-0.58;95.96
26487;BME280;14425;56.136;40.360;2023-02-12T05:11:32;98405.47;;;-0.42;96.12
26487;BME280;14425;56.136;40.360;2023-02-12T05:13:58;98406.31;;;-1.41;100.00
26487;BME280;14425;56.136;40.360;2023-02-12T05:16:23;98428.44;;;-2.03;100.00
26487;BME280;14425;56.136;40.360;2023-02-12T05:18:49;98427.69;;;-2.02;100.00
26487;BME280;14425;56.136;40.360;2023-02-12T05:21:14;98439.50;;;-2.15;100.00
26487;BME280;14425;56.136;40.360;2023-02-12T05:23:40;98441.88;;;-2.30;100.00
26487;BME280;14425;56.136;40.360;2023-02-12T05:26:13;98458.59;;;-2.32;100.00
26487;BME280;14425;56.136;40.360;2023-02-12T05:28:39;98448.22;;;-2.23;100.00
26487;BME280;14425;56.136;40.360;2023-02-12T05:31:07;98449.97;;;-2.61;100.00
26487;BME280;14425;56.136;40.360;2023-02-12T05:33:33;98451.03;;;-2.57;100.00
26487;BME280;14425;56.136;40.360;2023-02-12T05:36:06;98469.69;;;-2.92;100.00
26487;BME280;14425;56.136;40.360;2023-02-12T05:38:33;98471.56;;;-2.64;100.00
26487;BME280;14425;56.136;40.360;2023-02-12T05:41:08;98481.94;;;-2.48;100.00
26487;BME280;14425;56.136;40.360;2023-02-12T05:43:34;98489.72;;;-2.45;100.00
26487;BME280;14425;56.136;40.360;2023-02-12T05:46:01;98485.09;;;-2.64;100.00
26487;BME280;14425;56.136;40.360;2023-02-12T05:48:28;98485.13;;;-2.75;100.00
26487;BME280;14425;56.136;40.360;2023-02-12T05:50:54;98494.81;;;-2.93;100.00
26487;BME280;14425;56.136;40.360;2023-02-12T05:53:19;98506.78;;;-3.03;100.00
26487;BME280;14425;56.136;40.360;2023-02-12T05:55:45;98509.44;;;-2.64;100.00
26487;BME280;14425;56.136;40.360;2023-02-12T05:58:11;98519.50;;;-2.52;100.00
26487;BME280;14425;56.136;40.360;2023-02-12T06:00:36;98518.84;;;-2.50;100.00
26487;BME280;14425;56.136;40.360;2023-02-12T06:03:02;98535.84;;;-2.47;100.00
26487;BME280;14425;56.136;40.360;2023-02-12T06:05:27;98533.88;;;-2.51;100.00
26487;BME280;14425;56.136;40.360;2023-02-12T06:07:53;98531.56;;;-1.98;100.00
26487;BME280;14425;56.136;40.360;2023-02-12T06:10:18;98542.84;;;-2.43;100.00
26487;BME280;14425;56.136;40.360;2023-02-12T06:12:44;98559.72;;;-2.91;100.00
26487;BME280;14425;56.136;40.360;2023-02-12T06:15:09;98558.00;;;-2.18;100.00
26487;BME280;14425;56.136;40.360;2023-02-12T06:17:35;98568.22;;;-1.91;100.00
26487;BME280;14425;56.136;40.360;2023-02-12T06:20:00;98576.28;;;-2.22;100.00
26487;BME280;14425;56.136;40.360;2023-02-12T06:22:28;98579.72;;;-2.08;100.00
26487;BME280;14425;56.136;40.360;2023-02-12T06:24:54;98584.56;;;-1.86;100.00
26487;BME280;14425;56.136;40.360;2023-02-12T06:27:19;98585.03;;;-1.92;100.00
26487;BME280;14425;56.136;40.360;2023-02-12T06:29:45;98605.19;;;-2.05;100.00
26487;BME280;14425;56.136;40.360;2023-02-12T06:32:10;98605.91;;;-2.19;100.00
26487;BME280;14425;56.136;40.360;2023-02-12T06:34:38;98590.31;;;-2.14;100.00
26487;BME280;14425;56.136;40.360;2023-02-12T06:37:04;98599.28;;;-2.06;100.00
26487;BME280;14425;56.136;40.360;2023-02-12T06:39:29;98609.78;;;-2.36;100.00
26487;BME280;14425;56.136;40.360;2023-02-12T06:41:55;98612.22;;;-2.38;100.00
26487;BME280;14425;56.136;40.360;2023-02-12T06:44:20;98616.66;;;-2.10;100.00
26487;BME280;14425;56.136;40.360;2023-02-12T06:46:46;98621.09;;;-2.31;100.00
26487;BME280;14425;56.136;40.360;2023-02-12T06:49:12;98630.47;;;-2.66;100.00
26487;BME280;14425;56.136;40.360;2023-02-12T06:51:38;98649.69;;;-2.68;100.00
26487;BME280;14425;56.136;40.360;2023-02-12T06:54:11;98644.50;;;-2.34;100.00
26487;BME280;14425;56.136;40.360;2023-02-12T06:56:37;98652.78;;;-2.72;100.00
26487;BME280;14425;56.136;40.360;2023-02-12T06:59:02;98651.31;;;-2.56;100.00
26487;BME280;14425;56.136;40.360;2023-02-12T07:01:28;98651.75;;;-2.74;100.00
26487;BME280;14425;56.136;40.360;2023-02-12T07:03:57;98664.19;;;-2.65;100.00
26487;BME280;14425;56.136;40.360;2023-02-12T07:06:23;98673.59;;;-2.51;100.00
26487;BME280;14425;56.136;40.360;2023-02-12T07:08:49;98672.41;;;-2.80;100.00
26487;BME280;14425;56.136;40.360;2023-02-12T07:11:15;98675.03;;;-2.66;100.00
26487;BME280;14425;56.136;40.360;2023-02-12T07:13:41;98689.44;;;-2.77;100.00
26487;BME280;14425;56.136;40.360;2023-02-12T07:16:09;98690.19;;;-2.78;100.00
26487;BME280;14425;56.136;40.360;2023-02-12T07:18:36;98695.88;;;-2.45;100.00
26487;BME280;14425;56.136;40.360;2023-02-12T07:21:06;98704.66;;;-2.28;100.00
26487;BME280;14425;56.136;40.360;2023-02-12T07:23:33;98713.13;;;-2.51;100.00
26487;BME280;14425;56.136;40.360;2023-02-12T07:26:04;98715.31;;;-2.20;100.00
26487;BME280;14425;56.136;40.360;2023-02-12T07:28:30;98722.13;;;-2.43;100.00
26487;BME280;14425;56.136;40.360;2023-02-12T07:31:12;98720.13;;;-2.24;100.00
26487;BME280;14425;56.136;40.360;2023-02-12T07:33:39;98728.94;;;-2.42;100.00
26487;BME280;14425;56.136;40.360;2023-02-12T07:36:07;98732.41;;;-2.87;100.00
26487;BME280;14425;56.136;40.360;2023-02-12T07:38:33;98751.94;;;-2.97;100.00
26487;BME280;14425;56.136;40.360;2023-02-12T07:41:18;98750.63;;;-2.91;100.00
26487;BME280;14425;56.136;40.360;2023-02-12T07:43:46;98746.28;;;-2.58;100.00
26487;BME280;14425;56.136;40.360;2023-02-12T07:46:20;98755.50;;;-2.24;100.00
26487;BME280;14425;56.136;40.360;2023-02-12T07:48:47;98765.34;;;-1.91;100.00
26487;BME280;14425;56.136;40.360;2023-02-12T07:51:15;98769.75;;;-2.36;100.00
26487;BME280;14425;56.136;40.360;2023-02-12T07:53:41;98779.44;;;-2.07;100.00
26487;BME280;14425;56.136;40.360;2023-02-12T07:56:15;98775.81;;;-2.34;100.00
26487;BME280;14425;56.136;40.360;2023-02-12T07:58:43;98783.38;;;-2.10;100.00
26487;BME280;14425;56.136;40.360;2023-02-12T08:01:19;98787.78;;;-2.31;100.00
26487;BME280;14425;56.136;40.360;2023-02-12T08:03:46;98784.59;;;-2.29;100.00
26487;BME280;14425;56.136;40.360;2023-02-12T08:06:33;98791.28;;;-2.29;100.00
26487;BME280;14425;56.136;40.360;2023-02-12T08:09:00;98819.16;;;-2.51;100.00
26487;BME280;14425;56.136;40.360;2023-02-12T08:11:27;98814.63;;;-1.73;100.00
26487;BME280;14425;56.136;40.360;2023-02-12T08:13:54;98820.28;;;-1.77;100.00
26487;BME280;14425;56.136;40.360;2023-02-12T08:16:22;98813.81;;;-2.32;100.00
26487;BME280;14425;56.136;40.360;2023-02-12T08:18:49;98831.25;;;-2.47;100.00
26487;BME280;14425;56.136;40.360;2023-02-12T08:21:17;98823.59;;;-2.13;100.00
26487;BME280;14425;56.136;40.360;2023-02-12T08:23:44;98835.22;;;-2.03;100.00
26487;BME280;14425;56.136;40.360;2023-02-12T08:26:14;98835.94;;;-1.45;100.00
26487;BME280;14425;56.136;40.360;2023-02-12T08:28:43;98825.97;;;-1.56;100.00
26487;BME280;14425;56.136;40.360;2023-02-12T08:31:12;98846.66;;;-1.85;100.00
26487;BME280;14425;56.136;40.360;2023-02-12T08:33:38;98852.59;;;-1.24;100.00
26487;BME280;14425;56.136;40.360;2023-02-12T08:36:09;98858.91;;;-1.42;100.00
26487;BME280;14425;56.136;40.360;2023-02-12T08:38:36;98856.16;;;-1.45;100.00
26487;BME280;14425;56.136;40.360;2023-02-12T08:41:11;98862.69;;;-1.84;100.00
26487;BME280;14425;56.136;40.360;2023-02-12T08:43:37;98871.47;;;-2.03;100.00
26487;BME280;14425;56.136;40.360;2023-02-12T08:46:09;98867.66;;;-1.25;100.00
26487;BME280;14425;56.136;40.360;2023-02-12T08:48:34;98880.34;;;-1.37;100.00
26487;BME280;14425;56.136;40.360;2023-02-12T08:51:08;98881.34;;;-1.94;100.00
26487;BME280;14425;56.136;40.360;2023-02-12T08:53:35;98881.22;;;-2.19;100.00
26487;BME280;14425;56.136;40.360;2023-02-12T08:56:01;98894.53;;;-2.22;100.00
26487;BME280;14425;56.136;40.360;2023-02-12T08:58:26;98895.19;;;-2.01;100.00
26487;BME280;14425;56.136;40.360;2023-02-12T09:00:52;98896.00;;;-1.78;100.00
26487;BME280;14425;56.136;40.360;2023-02-12T09:03:18;98906.38;;;-1.26;100.00
26487;BME280;14425;56.136;40.360;2023-02-12T09:05:44;98915.56;;;-1.88;100.00
26487;BME280;14425;56.136;40.360;2023-02-12T09:08:09;98910.16;;;-1.69;100.00
26487;BME280;14425;56.136;40.360;2023-02-12T09:10:39;98916.94;;;-0.83;100.00
26487;BME280;14425;56.136;40.360;2023-02-12T09:13:06;98921.25;;;-1.31;100.00
26487;BME280;14425;56.136;40.360;2023-02-12T09:15:38;98916.53;;;-1.97;100.00
26487;BME280;14425;56.136;40.360;2023-02-12T09:18:04;98936.28;;;-2.15;100.00
26487;BME280;14425;56.136;40.360;2023-02-12T09:20:31;98928.84;;;-1.78;100.00
26487;BME280;14425;56.136;40.360;2023-02-12T09:22:59;98949.19;;;-1.77;100.00
26487;BME280;14425;56.136;40.360;2023-02-12T09:25:25;98945.97;;;-1.98;100.00
26487;BME280;14425;56.136;40.360;2023-02-12T09:27:50;98947.94;;;-2.06;100.00
26487;BME280;14425;56.136;40.360;2023-02-12T09:30:16;98955.28;;;-2.20;100.00
26487;BME280;14425;56.136;40.360;2023-02-12T09:32:42;98963.38;;;-2.25;100.00
26487;BME280;14425;56.136;40.360;2023-02-12T09:35:07;98964.91;;;-1.69;100.00
26487;BME280;14425;56.136;40.360;2023-02-12T09:37:33;98969.22;;;-1.33;100.00
26487;BME280;14425;56.136;40.360;2023-02-12T09:39:58;98971.84;;;-1.55;99.83
26487;BME280;14425;56.136;40.360;2023-02-12T09:42:44;98975.41;;;-2.10;98.51
26487;BME280;14425;56.136;40.360;2023-02-12T09:45:26;98982.50;;;-1.71;100.00
26487;BME280;14425;56.136;40.360;2023-02-12T09:48:21;98984.69;;;-2.21;99.50
26487;BME280;14425;56.136;40.360;2023-02-12T09:50:53;98990.59;;;-1.87;99.67
26487;BME280;14425;56.136;40.360;2023-02-12T09:53:23;98997.16;;;-2.12;99.93
26487;BME280;14425;56.136;40.360;2023-02-12T09:55:49;98998.09;;;-2.44;100.00
26487;BME280;14425;56.136;40.360;2023-02-12T09:58:30;99002.06;;;-2.26;100.00
26487;BME280;14425;56.136;40.360;2023-02-12T10:00:57;99002.16;;;-1.67;100.00
26487;BME280;14425;56.136;40.360;2023-02-12T10:03:23;99013.81;;;-2.14;98.15
26487;BME280;14425;56.136;40.360;2023-02-12T10:05:54;99017.88;;;-2.50;98.89
26487;BME280;14425;56.136;40.360;2023-02-12T10:11:19;99036.94;;;-1.98;98.12
26487;BME280;14425;56.136;40.360;2023-02-12T10:19:15;99058.31;;;-2.16;95.58
26487;BME280;14425;56.136;40.360;2023-02-12T10:27:43;99058.69;;;-2.00;93.17
26487;BME280;14425;56.136;40.360;2023-02-12T10:33:06;99073.28;;;-2.30;93.39
26487;BME280;14425;56.136;40.360;2023-02-12T10:35:35;99080.81;;;-2.19;92.34
26487;BME280;14425;56.136;40.360;2023-02-12T10:38:08;99087.81;;;-2.27;92.84
26487;BME280;14425;56.136;40.360;2023-02-12T10:40:45;99096.56;;;-2.12;93.91
26487;BME280;14425;56.136;40.360;2023-02-12T10:43:11;99082.47;;;-0.93;92.24
26487;BME280;14425;56.136;40.360;2023-02-12T10:45:40;99093.16;;;-0.73;93.01
26487;BME280;14425;56.136;40.360;2023-02-12T10:53:23;99108.94;;;-1.59;88.65
26487;BME280;14425;56.136;40.360;2023-02-12T10:56:23;99119.66;;;-1.39;93.14
26487;BME280;14425;56.136;40.360;2023-02-12T10:58:56;99124.31;;;-1.90;89.10
26487;BME280;14425;56.136;40.360;2023-02-12T11:01:36;99117.59;;;-1.67;86.55
26487;BME280;14425;56.136;40.360;2023-02-12T11:07:03;99125.94;;;-1.68;88.14
26487;BME280;14425;56.136;40.360;2023-02-12T11:09:46;99140.09;;;-2.04;88.28
26487;BME280;14425;56.136;40.360;2023-02-12T11:12:22;99132.56;;;-1.13;88.31
26487;BME280;14425;56.136;40.360;2023-02-12T11:14:56;99142.06;;;-0.75;81.60
26487;BME280;14425;56.136;40.360;2023-02-12T11:17:29;99141.97;;;0.22;83.72
26487;BME280;14425;56.136;40.360;2023-02-12T11:23:04;99153.69;;;-1.00;79.21
26487;BME280;14425;56.136;40.360;2023-02-12T11:25:35;99170.63;;;-1.23;87.42
26487;BME280;14425;56.136;40.360;2023-02-12T11:28:16;99174.41;;;-0.70;85.74
26487;BME280;14425;56.136;40.360;2023-02-12T11:30:51;99160.00;;;-1.53;81.27
26487;BME280;14425;56.136;40.360;2023-02-12T11:33:31;99171.38;;;-1.58;80.86
26487;BME280;14425;56.136;40.360;2023-02-12T11:38:37;99180.56;;;-1.70;85.54
26487;BME280;14425;56.136;40.360;2023-02-12T11:41:08;99189.78;;;-1.82;81.65
26487;BME280;14425;56.136;40.360;2023-02-12T11:43:44;99183.31;;;-0.87;85.25
26487;BME280;14425;56.136;40.360;2023-02-12T11:46:18;99204.81;;;-0.70;83.37
26487;BME280;14425;56.136;40.360;2023-02-12T11:48:45;99212.53;;;-1.49;80.86
26487;BME280;14425;56.136;40.360;2023-02-12T11:51:19;99214.47;;;-0.65;84.27
26487;BME280;14425;56.136;40.360;2023-02-12T11:53:51;99220.44;;;-1.56;77.05
26487;BME280;14425;56.136;40.360;2023-02-12T11:56:18;99236.88;;;-2.05;83.57
26487;BME280;14425;56.136;40.360;2023-02-12T11:58:45;99237.59;;;-1.96;85.10
26487;BME280;14425;56.136;40.360;2023-02-12T12:03:51;99242.19;;;-0.90;77.14
26487;BME280;14425;56.136;40.360;2023-02-12T12:06:30;99247.59;;;-1.31;80.46
26487;BME280;14425;56.136;40.360;2023-02-12T12:09:06;99257.59;;;-1.55;78.77
26487;BME280;14425;56.136;40.360;2023-02-12T12:14:41;99288.16;;;-2.49;78.74
26487;BME280;14425;56.136;40.360;2023-02-12T12:17:44;99277.72;;;-2.11;84.74
26487;BME280;14425;56.136;40.360;2023-02-12T12:20:46;99273.13;;;-2.37;80.56
26487;BME280;14425;56.136;40.360;2023-02-12T12:23:20;99289.47;;;-1.79;80.96
26487;BME280;14425;56.136;40.360;2023-02-12T12:25:56;99294.13;;;-1.29;81.50
26487;BME280;14425;56.136;40.360;2023-02-12T12:28:44;99302.22;;;-1.77;77.71
26487;BME280;14425;56.136;40.360;2023-02-12T12:31:27;99312.72;;;-1.51;82.25
26487;BME280;14425;56.136;40.360;2023-02-12T12:34:19;99311.91;;;-1.39;75.20
26487;BME280;14425;56.136;40.360;2023-02-12T12:56:07;99356.91;;;-2.10;81.88
26487;BME280;14425;56.136;40.360;2023-02-12T13:18:16;99406.47;;;-2.12;76.76
26487;BME280;14425;56.136;40.360;2023-02-12T13:25:51;99410.69;;;-1.48;78.71
26487;BME280;14425;56.136;40.360;2023-02-12T13:28:30;99415.88;;;-0.92;74.99
26487;BME280;14425;56.136;40.360;2023-02-12T13:30:58;99416.88;;;-1.12;73.54
26487;BME280;14425;56.136;40.360;2023-02-12T13:36:05;99426.41;;;-2.36;72.48
26487;BME280;14425;56.136;40.360;2023-02-12T13:38:37;99442.94;;;-2.60;78.32
26487;BME280;14425;56.136;40.360;2023-02-12T13:41:07;99442.78;;;-1.79;76.07
26487;BME280;14425;56.136;40.360;2023-02-12T13:54:12;99482.81;;;-2.66;80.12
26487;BME280;14425;56.136;40.360;2023-02-12T13:56:44;99490.19;;;-3.28;78.44
26487;BME280;14425;56.136;40.360;2023-02-12T13:59:47;99493.97;;;-2.93;84.66
26487;BME280;14425;56.136;40.360;2023-02-12T14:10:25;99520.38;;;-2.19;80.08
26487;BME280;14425;56.136;40.360;2023-02-12T14:12:55;99531.25;;;-2.31;78.36
26487;BME280;14425;56.136;40.360;2023-02-12T14:17:54;99540.88;;;-1.86;74.22
26487;BME280;14425;56.136;40.360;2023-02-12T14:27:46;99569.16;;;-2.70;76.15
26487;BME280;14425;56.136;40.360;2023-02-12T14:37:54;99587.88;;;-2.87;83.11
26487;BME280;14425;56.136;40.360;2023-02-12T14:43:32;99586.69;;;-2.32;79.99
26487;BME280;14425;56.136;40.360;2023-02-12T14:51:30;99598.63;;;-2.80;73.21
26487;BME280;14425;56.136;40.360;2023-02-12T14:53:58;99602.03;;;-3.46;77.67
26487;BME280;14425;56.136;40.360;2023-02-12T14:56:25;99593.59;;;-2.50;80.72
26487;BME280;14425;56.136;40.360;2023-02-12T14:58:53;99599.16;;;-3.60;76.87
26487;BME280;14425;56.136;40.360;2023-02-12T15:01:33;99616.34;;;-4.11;80.15
26487;BME280;14425;56.136;40.360;2023-02-12T15:04:13;99609.44;;;-4.22;81.93
26487;BME280;14425;56.136;40.360;2023-02-12T15:06:51;99619.22;;;-3.23;79.72
26487;BME280;14425;56.136;40.360;2023-02-12T15:09:31;99623.22;;;-3.06;78.10
26487;BME280;14425;56.136;40.360;2023-02-12T15:12:20;99623.31;;;-1.88;73.73
26487;BME280;14425;56.136;40.360;2023-02-12T15:15:00;99633.41;;;-1.57;73.82
26487;BME280;14425;56.136;40.360;2023-02-12T15:17:31;99652.09;;;-3.32;69.50
26487;BME280;14425;56.136;40.360;2023-02-12T15:20:21;99652.81;;;-3.33;80.30
26487;BME280;14425;56.136;40.360;2023-02-12T15:22:47;99651.56;;;-2.71;74.61
26487;BME280;14425;56.136;40.360;2023-02-12T15:27:49;99660.25;;;-2.97;77.87
26487;BME280;14425;56.136;40.360;2023-02-12T15:30:25;99661.38;;;-2.55;76.51
26487;BME280;14425;56.136;40.360;2023-02-12T15:32:54;99672.19;;;-2.37;75.30
26487;BME280;14425;56.136;40.360;2023-02-12T15:35:24;99673.03;;;-2.47;76.43
26487;BME280;14425;56.136;40.360;2023-02-12T15:37:50;99671.28;;;-2.37;84.09
26487;BME280;14425;56.136;40.360;2023-02-12T15:40:16;99666.94;;;-1.49;83.42
26487;BME280;14425;56.136;40.360;2023-02-12T15:42:53;99647.97;;;2.04;100.00
26487;BME280;14425;56.136;40.360;2023-02-12T15:45:27;99654.28;;;2.59;73.92
26487;BME280;14425;56.136;40.360;2023-02-12T15:50:33;99660.31;;;1.86;95.45
26487;BME280;14425;56.136;40.360;2023-02-12T15:52:59;99673.16;;;1.05;81.77
26487;BME280;14425;56.136;40.360;2023-02-12T15:55:27;99673.00;;;0.12;78.49
26487;BME280;14425;56.136;40.360;2023-02-12T15:57:57;99669.59;;;1.03;91.37
26487;BME280;14425;56.136;40.360;2023-02-12T16:00:39;99673.47;;;0.52;75.02
26487;BME280;14425;56.136;40.360;2023-02-12T16:03:17;99681.56;;;1.16;77.12
26487;BME280;14425;56.136;40.360;2023-02-12T16:05:44;99689.25;;;0.60;71.81
26487;BME280;14425;56.136;40.360;2023-02-12T16:08:14;99697.69;;;-0.08;70.66